Flood watches and warnings may be in place at some locations. For the latest rainfall, river conditions, flood watches and warnings see BoM.

Forecasts are only available for sites displaying the forecast symbol.

Some water levels are actually in metres AHD (Australian Height Datum), click individual sites for more details.

Scroll for more >

River gauges, storages, and weirs in the Murray–Darling Basin

Typesort descending Location River Water level Flow Volume Release Water temp Salinity Rainfall
River Gauge Colignan Murray 4.3 m 5/07/2022 9:00 26057 ML/Day 5/07/2022 9:00 Not measured Not measured 9.8°C 5/07/2022 9:00 105.7 μS/cm 5/07/2022 9:00 Not measured Full data
River Gauge Lake Alexandrina Murray 0.69 m 5/07/2022 10:00 Not measured 1576 GL 5/07/2022 10:00 Not measured Not measured 710.7 μS/cm 5/07/2022 9:00 Not measured Full data
River Gauge Tallandoon Mitta 1.85 m 5/07/2022 9:00 1697 ML/Day 5/07/2022 9:00 Not measured Not measured 7.4°C 5/07/2022 9:00 43.2 μS/cm 5/07/2022 9:00 Not measured Full data
River Gauge Biggara Murray 0.72 m 5/07/2022 10:00 1280 ML/Day 5/07/2022 10:00 Not measured Not measured 7.4°C 5/07/2022 10:00 59.1 μS/cm 5/07/2022 10:00 0.00 mm 5/07/2022 10:00 Full data
River Gauge McCoy Bridge Goulburn 1.84 m 5/07/2022 9:00 1583 ML/Day 5/07/2022 9:00 Not measured Not measured 8.2°C 5/07/2022 9:00 143.2 μS/cm 5/07/2022 9:00 Not measured Full data
River Gauge Lake Albert Murray 0.68 m 5/07/2022 10:00 Not measured 259 GL 5/07/2022 10:00 Not measured Not measured Not measured Not measured Full data
River Gauge Tallandoon Mitta 1.85 m 5/07/2022 9:00 1697 ML/Day 5/07/2022 9:00 Not measured Not measured 7.4°C 5/07/2022 9:00 43.2 μS/cm 5/07/2022 9:00 Not measured Full data
River Gauge Rochester Campaspe 1.74 m 5/07/2022 9:00 99 ML/Day 5/07/2022 9:00 Not measured Not measured 8.5°C 5/07/2022 9:00 573.1 μS/cm 5/07/2022 9:00 0.00 mm 5/07/2022 9:00 Full data
River Gauge Bringenbrong Bridge Murray 1.53 m 5/07/2022 9:00 3882 ML/Day 5/07/2022 9:00 Not measured Not measured Not measured Not measured Not measured Full data
River Gauge Bandiana Kiewa 1.82 m 5/07/2022 9:00 1688 ML/Day 5/07/2022 9:00 Not measured Not measured 6.3°C 5/07/2022 9:00 41.1 μS/cm 5/07/2022 9:00 Not measured Full data
River Gauge Yarrawonga Main Channel Murray 0.00 m 5/07/2022 9:00 Not measured Not measured 0.00 ML/d5/07/2022 9:00 Not measured Not measured Not measured Full data
River Gauge Tauwitchere Barrage Murray 0.68 m 5/07/2022 9:00 Not measured Not measured Not measured Not measured Not measured Not measured Full data
River Gauge Balranald Murrumbidgee 6.03 m 5/07/2022 9:00 11220 ML/Day 5/07/2022 9:00 Not measured Not measured 9.3°C 5/07/2022 9:00 150.1 μS/cm 5/07/2022 9:00 Not measured Full data
River Gauge Barmah Choke Murray 3.81 m 5/07/2022 9:00 13620 ML/Day 5/07/2022 9:00 Not measured Not measured Not measured Not measured Not measured Full data
River Gauge Flow to South Australia Murray Not measured Not measured Not measured 44814 ML/d4/07/2022 8:00 Not measured Not measured Not measured Full data
River Gauge Torrumbarry Headworks Murray 86.19 m 5/07/2022 9:00 Not measured Not measured 984.8 ML/d5/07/2022 9:00 Not measured Not measured Not measured Full data
River Gauge Pinegrove Murray 1.77 m 5/07/2022 10:00 1358 ML/Day 5/07/2022 10:00 Not measured Not measured 5.8°C 5/07/2022 10:00 57.8 μS/cm 5/07/2022 10:00 0.00 mm 5/07/2022 10:00 Full data
River Gauge Kerang Loddon 0.49 m 5/07/2022 9:00 446 ML/Day 5/07/2022 9:00 Not measured Not measured 8.2°C 5/07/2022 9:00 109 μS/cm 5/07/2022 9:00 Not measured Full data
River Gauge Mulwala Canal Murray Not measured Not measured Not measured 0.00 ML/d5/07/2022 9:00 Not measured Not measured Not measured Full data
River Gauge Mundoo Barrage Murray 0.63 m 4/07/2022 8:00 Not measured Not measured Not measured Not measured Not measured Not measured Full data
River Gauge Peechelba Ovens 128.44 m 5/07/2022 9:00 5030 ML/Day 5/07/2022 9:00 Not measured Not measured 7.3°C 5/07/2022 9:00 48.3 μS/cm 5/07/2022 9:00 Not measured Full data
River Gauge Redcliffs Murray Not measured Not measured Not measured Not measured Not measured 121.2 μS/cm 5/07/2022 8:00 Not measured Full data
River Gauge Stoney Crossing Murray 2.07 m 5/07/2022 9:00 2626 ML/Day 5/07/2022 9:00 Not measured 976.2 ML/d14/01/2022 7:45 9.2°C 5/07/2022 9:00 71.7 μS/cm 5/07/2022 9:00 Not measured Full data
River Gauge Jingellic Murray 2.12 m 5/07/2022 8:00 7961 ML/Day 5/07/2022 8:00 Not measured Not measured 7°C 5/07/2022 9:00 45 μS/cm 5/07/2022 9:00 0.00 mm 5/07/2022 9:00 Full data
River Gauge Hinnomunjie Mitta 0.98 m 5/07/2022 9:00 1232 ML/Day 5/07/2022 9:00 Not measured Not measured 5.8°C 5/07/2022 9:00 59.7 μS/cm 5/07/2022 9:00 0.00 mm 5/07/2022 9:00 Full data
River Gauge Tocumwal Murray 3.89 m 5/07/2022 9:00 24588 ML/Day 5/07/2022 9:00 Not measured Not measured 9.2°C 5/07/2022 9:00 51.2 μS/cm 5/07/2022 9:00 Not measured Full data
River Gauge Edward Escape Wakool -1.21 m 5/07/2022 9:00 0.00 ML/Day 5/07/2022 8:00 Not measured Not measured 5.6°C 5/07/2022 9:00 0.00 μS/cm 5/07/2022 8:00 Not measured Full data
River Gauge Wilcania Darling 9.69 m 5/07/2022 9:00 28217 ML/Day 5/07/2022 9:00 Not measured Not measured 11.2°C 5/07/2022 9:00 213.5 μS/cm 5/07/2022 8:00 Not measured Full data
River Gauge Swan Hill Murray 2.26 m 5/07/2022 9:00 12995 ML/Day 5/07/2022 9:00 Not measured Not measured 8.9°C 5/07/2022 9:00 71.6 μS/cm 5/07/2022 9:00 Not measured Full data
River Gauge Morgan Downstream Murray Not measured Not measured Not measured 35630.5 ML/d5/07/2022 8:00 Not measured 213.6 μS/cm 5/07/2022 8:00 Not measured Full data
River Gauge Frenchman Creek Murray 27.85 m 4/07/2022 8:00 Not measured Not measured 1054.9 ML/d4/07/2022 8:00 Not measured Not measured Not measured Full data
River Gauge Edward River Offtake Murray 2.79 m 5/07/2022 10:00 2209 ML/Day 5/07/2022 10:00 Not measured Not measured 9.4°C 5/07/2022 9:00 53.8 μS/cm 5/07/2022 8:00 Not measured Full data
River Gauge Wakool Junction Murray 5.24 m 5/07/2022 9:00 17733 ML/Day 5/07/2022 9:00 Not measured Not measured 9°C 5/07/2022 9:00 77.4 μS/cm 5/07/2022 9:00 Not measured Full data
River Gauge Doctors Point Murray 3.14 m 5/07/2022 10:00 17315 ML/Day 5/07/2022 10:00 Not measured Not measured 11.5°C 5/07/2022 10:00 197.9 μS/cm 5/07/2022 10:00 Not measured Full data
River Gauge Albury (Union Bridge) Murray 2.18 m 5/07/2022 10:00 Not measured Not measured Not measured 11°C 5/07/2022 10:00 61.1 μS/cm 5/07/2022 10:00 Not measured Full data
River Gauge Colemans Mitta 1.4 m 5/07/2022 9:00 964 ML/Day 5/07/2022 9:00 Not measured Not measured 8.9°C 5/07/2022 9:00 49.9 μS/cm 5/07/2022 9:00 Not measured Full data
River Gauge Gulpa Creek Offtake Murray 3.21 m 5/07/2022 9:00 908 ML/Day 5/07/2022 9:00 Not measured Not measured Not measured Not measured Not measured Full data
River Gauge Weir 32 Upstream Darling 6.42 m 5/07/2022 9:00 22540 ML/Day 5/07/2022 9:00 Not measured Not measured 10.2°C 5/07/2022 9:00 223.4 μS/cm 5/07/2022 9:00 Not measured Full data
River Gauge Corowa Murray 3.39 m 5/07/2022 10:00 17440 ML/Day 5/07/2022 10:00 Not measured Not measured 10.4°C 5/07/2022 10:00 60.1 μS/cm 5/07/2022 10:00 Not measured Full data
River Gauge Murray Bridge Murray 0.69 m 5/07/2022 9:00 Not measured Not measured Not measured 11.6°C 5/07/2022 9:00 219.7 μS/cm 5/07/2022 9:00 Not measured Full data
River Gauge Colemans Mitta 1.4 m 5/07/2022 9:00 964 ML/Day 5/07/2022 9:00 Not measured Not measured 8.9°C 5/07/2022 9:00 49.9 μS/cm 5/07/2022 9:00 Not measured Full data
River Gauge Rufus River Murray 23.7 m 4/07/2022 8:00 Not measured Not measured 5682 ML/d4/07/2022 8:00 Not measured 206.4 μS/cm 5/07/2022 8:00 Not measured Full data
River Gauge Echuca Wharf Murray 88.13 m 5/07/2022 8:00 Not measured Not measured Not measured Not measured Not measured Not measured Full data
River Gauge Wakool Canal Wakool -0.05 m 5/07/2022 10:00 Not measured Not measured 0.00 ML/d5/07/2022 9:00 Not measured Not measured Not measured Full data
River Gauge Burtundy Darling 6.44 m 5/07/2022 9:00 15589 ML/Day 5/07/2022 9:00 Not measured Not measured 10.5°C 5/07/2022 9:00 236.1 μS/cm 5/07/2022 8:00 Not measured Full data
Storage Hume Dam Murray 191.05 m 5/07/2022 10:00 Not measured 2818 GL 5/07/2022 10:00 13926.7 ML/d5/07/2022 10:00 Not measured Not measured 0.00 mm 5/07/2022 10:00 Full data
Storage Dartmouth Dam Mitta 483.12 m 5/07/2022 9:00 Not measured 3670 GL 5/07/2022 9:00 Not measured Not measured Not measured Not measured Full data
Storage Dartmouth Dam Mitta 483.12 m 5/07/2022 9:00 Not measured 3670 GL 5/07/2022 9:00 Not measured Not measured Not measured Not measured Full data
Storage Menindee Lakes Darling Not measured Not measured 1905 GL 4/07/2022 8:00 Not measured Not measured Not measured Not measured Full data
Storage Lake Victoria Murray 24.24 m 5/07/2022 9:00 Not measured 369 GL 5/07/2022 9:00 Not measured 9.4°C 5/07/2022 9:00 209.9 μS/cm 5/07/2022 9:00 Not measured Full data
Weirs Lock 4 Upstream Murray 13.27 m 5/07/2022 9:00 Not measured Not measured Not measured Not measured Not measured Not measured Full data
Weirs Yarrawonga Weir Upstream Murray 120.17 m 5/07/2022 9:00 Not measured Not measured Not measured Not measured Not measured 0.00 mm 5/07/2022 9:00 Full data
Weirs Lock 7 Downstream Murray 23.59 m 29/06/2022 13:00 Not measured Not measured Not measured Not measured Not measured Not measured Full data
Weirs Torrumbarry Weir Downstream Murray 4.15 m 5/07/2022 9:00 14100 ML/Day 5/07/2022 9:00 Not measured Not measured 8.8°C 5/07/2022 9:00 71.7 μS/cm 5/07/2022 9:00 Not measured Full data
Weirs Lock 3 Downstream Murray 8.56 m 5/07/2022 9:00 Not measured Not measured Not measured Not measured Not measured Not measured Full data
Weirs Mildura Weir downstream Murray 32.17 m 5/07/2022 9:00 Not measured Not measured Not measured 10°C 5/07/2022 9:00 117.7 μS/cm 5/07/2022 9:00 Not measured Full data
Weirs Yarrawonga Weir Downstream Murray 3.09 m 5/07/2022 10:00 22894 ML/Day 5/07/2022 10:00 Not measured Not measured 9.6°C 5/07/2022 10:00 62.1 μS/cm 5/07/2022 8:00 Not measured Full data
Weirs Lock 7 Upstream Murray 23.75 m 5/07/2022 9:00 Not measured Not measured Not measured 10.3°C 5/07/2022 9:00 170 μS/cm 5/07/2022 9:00 Not measured Full data
Weirs Torrumbarry Weir Upstream Murray 86.05 m 5/07/2022 9:00 Not measured 37 GL 5/07/2022 9:00 Not measured 8.8°C 5/07/2022 9:00 71.7 μS/cm 5/07/2022 8:00 0.00 mm 5/07/2022 9:00 Full data
Weirs Lock 3 Upstream Murray 9.82 m 5/07/2022 9:00 Not measured Not measured Not measured Not measured Not measured Not measured Full data
Weirs Lock 9 Downstream Murray 26.7 m 5/07/2022 9:00 Not measured Not measured Not measured Not measured Not measured Not measured Full data
Weirs Lock 2 Downstream Murray 5.81 m 5/07/2022 9:00 Not measured Not measured Not measured Not measured Not measured Not measured Full data
Weirs Lock 9 Upstream Murray 27.45 m 5/07/2022 9:00 Not measured Not measured Not measured 10.3°C 5/07/2022 9:00 171.4 μS/cm 5/07/2022 9:00 Not measured Full data
Weirs Lock 6 Downstream Murray 18.67 m 5/07/2022 9:00 Not measured Not measured Not measured Not measured Not measured Not measured Full data
Weirs Lock 2 Upstream Murray 6.15 m 5/07/2022 9:00 Not measured Not measured Not measured 10.7°C 5/07/2022 9:00 208.6 μS/cm 5/07/2022 9:00 Not measured Full data
Weirs Lock 8 Upstream Murray 25.11 m 5/07/2022 9:00 Not measured Not measured Not measured 10.3°C 5/07/2022 9:00 182.4 μS/cm 5/07/2022 9:00 Not measured Full data
Weirs Wentworth Weir Murray 30.02 m 5/07/2022 10:00 Not measured Not measured 40998.1 ML/d5/07/2022 9:00 Not measured 136.0 μS/cm 28/09/2021 7:45 Not measured Full data
Weirs Lock 6 Upstream Murray 19.29 m 5/07/2022 9:00 Not measured Not measured Not measured 10.2°C 5/07/2022 9:00 183.6 μS/cm 5/07/2022 9:00 Not measured Full data
Weirs Lock 1 Downstream Murray 2.47 m 5/07/2022 9:00 Not measured Not measured 36013.8 ML/d4/07/2022 8:00 Not measured Not measured Not measured Full data
Weirs Steven's Weir Upstream Edward 4.12 m 5/07/2022 10:00 Not measured Not measured Not measured Not measured Not measured Not measured Full data
Weirs Lock 5 Downstream Murray 15.26 m 5/07/2022 9:00 Not measured Not measured Not measured Not measured Not measured Not measured Full data
Weirs Lock 1 Upstream Murray 3.19 m 5/07/2022 9:00 Not measured Not measured Not measured 10.8°C 5/07/2022 9:00 205.6 μS/cm 5/07/2022 9:00 Not measured Full data
Weirs Steven's Weir Downstream Edward 4.05 m 5/07/2022 9:00 6704 ML/Day 5/07/2022 9:00 Not measured Not measured 8.3°C 5/07/2022 9:00 69.3 μS/cm 5/07/2022 8:00 Not measured Full data
Weirs Lock 5 Upstream Murray 16.32 m 5/07/2022 9:00 Not measured Not measured Not measured 10.2°C 5/07/2022 9:00 186.1 μS/cm 5/07/2022 9:00 Not measured Full data
Weirs Euston Weir Upstream Murray 47.22 m 4/07/2022 9:00 Not measured 32 GL 4/07/2022 8:00 Not measured Not measured Not measured 145.9 mm 5/03/2020 9:00 Full data
Weirs Euston Weir Downstream Murray 45.77 m 5/07/2022 9:00 26023 ML/Day 5/07/2022 9:00 Not measured Not measured 9.2°C 5/07/2022 9:00 124.7 μS/cm 5/07/2022 9:00 Not measured Full data
Weirs Lock 4 Downstream Murray 12.96 m 5/07/2022 9:00 Not measured Not measured Not measured Not measured Not measured Not measured Full data